Time;durP1;ratioP1;P1;durP2;ratioP2;P2;SDS_P1;SDS_P2;PMS_P1;PMS_P2;Temp;Humidity;BMP_temperature;BMP_pressure;BME280_temperature;BME280_humidity;BME280_pressure;Samples;Min_cycle;Max_cycle;Signal;HPM_P1;HPM_P2
2022/05/29 05:28:37;;;;;;;11.90;7.80;;;;;;;;;;5242070;23;20421;-63
2022/05/29 05:31:03;;;;;;;9.95;6.80;;;;;;;;;;4895454;29;20036;-63
2022/05/29 05:33:29;;;;;;;13.30;7.55;;;;;;;;;;4895727;29;20037;-63
2022/05/29 05:35:56;;;;;;;10.75;7.63;;;;;;;;;;4895868;29;20033;-63
2022/05/29 05:38:22;;;;;;;9.50;6.82;;;;;;;;;;4895614;29;20408;-63
2022/05/29 05:40:49;;;;;;;9.65;7.43;;;;;;;;;;4895950;29;20040;-63
2022/05/29 05:43:19;;;;;;;11.35;7.22;;;;;;;;;;4895805;29;20025;-63
2022/05/29 05:45:45;;;;;;;9.52;6.80;;;;;;;;;;4895649;29;20116;-63
2022/05/29 05:48:11;;;;;;;11.00;7.15;;;;;;;;;;4895638;29;20040;-64
2022/05/29 05:50:40;;;;;;;10.35;7.55;;;;;;;;;;4895792;29;20025;-63
2022/05/29 05:53:06;;;;;;;9.50;6.68;;;;;;;;;;4895442;29;20111;-64
2022/05/29 05:55:32;;;;;;;11.82;7.20;;;;;;;;;;4895465;29;20402;-63
2022/05/29 05:57:58;;;;;;;12.60;7.53;;;;;;;;;;4895098;29;20112;-63
2022/05/29 06:00:24;;;;;;;11.85;7.75;;;;;;;;;;4895686;29;20035;-64
2022/05/29 06:02:50;;;;;;;12.02;8.10;;;;;;;;;;4895492;29;20037;-64
2022/05/29 06:05:16;;;;;;;10.63;7.85;;;;;;;;;;4895404;29;20031;-64
2022/05/29 06:07:42;;;;;;;11.30;7.82;;;;;;;;;;4895288;29;20037;-63
2022/05/29 06:10:09;;;;;;;11.68;7.75;;;;;;;;;;4895531;29;20067;-65
2022/05/29 06:12:37;;;;;;;14.13;8.38;;;;;;;;;;4895370;29;20021;-65
2022/05/29 06:15:03;;;;;;;12.70;9.38;;;;;;;;;;4895154;29;20020;-63
2022/05/29 06:17:31;;;;;;;14.05;10.20;;;;;;;;;;4894848;29;20028;-63
2022/05/29 06:19:57;;;;;;;14.32;10.18;;;;;;;;;;4895258;29;20036;-70
2022/05/29 06:22:23;;;;;;;14.25;9.35;;;;;;;;;;4895666;29;20060;-63
2022/05/29 06:24:49;;;;;;;14.02;8.20;;;;;;;;;;4895155;29;20035;-64
2022/05/29 06:27:15;;;;;;;12.63;8.50;;;;;;;;;;4896711;29;20488;-63
2022/05/29 06:29:41;;;;;;;12.00;8.68;;;;;;;;;;4892597;29;20053;-67
2022/05/29 06:32:12;;;;;;;13.90;8.52;;;;;;;;;;4884807;29;20037;-68
2022/05/29 06:34:38;;;;;;;14.15;8.38;;;;;;;;;;4888628;29;20056;-62
2022/05/29 06:37:08;;;;;;;11.40;7.13;;;;;;;;;;4889170;29;20544;-62
2022/05/29 06:39:35;;;;;;;11.55;7.28;;;;;;;;;;4898251;29;20497;-64
2022/05/29 06:42:01;;;;;;;10.50;6.30;;;;;;;;;;4898132;29;20527;-65
2022/05/29 06:44:27;;;;;;;11.00;6.70;;;;;;;;;;4898239;29;20360;-63
2022/05/29 06:46:53;;;;;;;14.02;6.55;;;;;;;;;;4898034;29;20028;-65
2022/05/29 06:49:19;;;;;;;8.95;6.00;;;;;;;;;;4898428;29;20037;-61
2022/05/29 06:51:45;;;;;;;9.15;6.78;;;;;;;;;;4898186;29;20029;-61
2022/05/29 06:54:11;;;;;;;12.63;7.63;;;;;;;;;;4897752;29;20504;-60
2022/05/29 06:56:37;;;;;;;10.25;7.32;;;;;;;;;;4898058;29;20072;-60
2022/05/29 06:59:06;;;;;;;13.20;8.48;;;;;;;;;;4898093;29;20499;-60
2022/05/29 07:07:07;;;;;;;11.20;7.57;;;;;;;;;;4898002;29;20047;-66
2022/05/29 07:09:36;;;;;;;14.27;8.25;;;;;;;;;;4897800;29;20545;-62
2022/05/29 07:12:05;;;;;;;13.30;8.02;;;;;;;;;;4898017;29;20029;-61
2022/05/29 07:14:32;;;;;;;10.48;7.53;;;;;;;;;;4897741;29;20032;-61
2022/05/29 07:16:58;;;;;;;10.25;7.10;;;;;;;;;;4897646;29;20047;-64
2022/05/29 07:19:28;;;;;;;10.60;7.45;;;;;;;;;;4897516;29;20560;-65
2022/05/29 07:21:56;;;;;;;11.70;7.75;;;;;;;;;;4897619;29;20028;-61
2022/05/29 07:24:22;;;;;;;14.95;6.88;;;;;;;;;;4897141;29;20033;-61
2022/05/29 07:26:49;;;;;;;13.63;7.40;;;;;;;;;;4897530;29;20067;-61
2022/05/29 07:29:17;;;;;;;12.85;7.50;;;;;;;;;;4897084;29;20044;-62
2022/05/29 07:31:44;;;;;;;12.13;7.38;;;;;;;;;;4897775;29;20100;-62
2022/05/29 07:34:10;;;;;;;10.73;7.28;;;;;;;;;;4897085;29;20036;-61
2022/05/29 07:36:36;;;;;;;14.25;8.13;;;;;;;;;;4896170;29;20032;-62
2022/05/29 07:39:02;;;;;;;12.90;7.32;;;;;;;;;;4896520;29;20041;-72
2022/05/29 07:44:12;;;;;;;10.43;8.75;;;;;;;;;;4896965;29;20088;-66
2022/05/29 07:46:38;;;;;;;10.27;7.72;;;;;;;;;;4897023;29;20429;-67
2022/05/29 07:49:06;;;;;;;15.75;8.80;;;;;;;;;;4897365;29;20028;-67
2022/05/29 07:51:32;;;;;;;11.70;8.65;;;;;;;;;;4896793;29;20028;-60
2022/05/29 07:53:58;;;;;;;14.73;9.65;;;;;;;;;;4896631;29;20030;-61
2022/05/29 07:56:26;;;;;;;13.27;9.32;;;;;;;;;;4897143;29;20071;-63
2022/05/29 07:58:52;;;;;;;15.68;10.40;;;;;;;;;;4891993;29;20056;-62
2022/05/29 08:01:19;;;;;;;15.75;10.45;;;;;;;;;;4890363;29;20496;-63
2022/05/29 08:03:45;;;;;;;11.45;8.73;;;;;;;;;;4896760;29;20080;-63
2022/05/29 08:06:11;;;;;;;15.43;9.63;;;;;;;;;;4896403;29;20028;-66
2022/05/29 08:08:37;;;;;;;11.00;8.60;;;;;;;;;;4896390;29;20029;-61
2022/05/29 08:11:04;;;;;;;13.90;9.07;;;;;;;;;;4896785;29;20048;-65
2022/05/29 08:13:31;;;;;;;11.80;8.65;;;;;;;;;;4896040;29;20503;-65
2022/05/29 08:15:57;;;;;;;12.35;8.23;;;;;;;;;;4896247;29;20048;-62
2022/05/29 08:18:23;;;;;;;14.88;9.82;;;;;;;;;;4887544;29;20037;-62
2022/05/29 08:20:51;;;;;;;14.48;10.68;;;;;;;;;;4886101;29;20040;-61
2022/05/29 08:23:18;;;;;;;18.98;10.13;;;;;;;;;;4886020;29;20039;-68
2022/05/29 08:31:28;;;;;;;13.05;9.25;;;;;;;;;;4810334;29;20053;-63
2022/05/29 08:33:54;;;;;;;13.25;9.43;;;;;;;;;;4810048;29;20083;-61
2022/05/29 08:36:24;;;;;;;13.05;10.00;;;;;;;;;;4811393;29;20487;-62
2022/05/29 08:38:52;;;;;;;14.13;10.32;;;;;;;;;;4810428;29;20216;-68
2022/05/29 08:41:18;;;;;;;11.50;7.18;;;;;;;;;;4814510;29;20602;-62
2022/05/29 08:44:02;;;;;;;12.57;8.55;;;;;;;;;;4810995;29;20046;-63
2022/05/29 08:46:35;;;;;;;13.70;7.18;;;;;;;;;;4808890;29;20036;-62
2022/05/29 08:49:01;;;;;;;12.07;8.27;;;;;;;;;;4809731;29;20026;-67
2022/05/29 08:51:47;;;;;;;11.98;8.65;;;;;;;;;;4809164;29;20038;-67
2022/05/29 08:54:30;;;;;;;14.57;8.48;;;;;;;;;;4806928;29;20473;-62
2022/05/29 08:57:05;;;;;;;12.60;9.52;;;;;;;;;;4809725;29;20038;-63
2022/05/29 08:59:42;;;;;;;11.20;9.05;;;;;;;;;;4808047;29;20042;-65
2022/05/29 09:02:14;;;;;;;12.02;9.45;;;;;;;;;;4811187;29;20066;-61
2022/05/29 09:04:42;;;;;;;14.05;10.35;;;;;;;;;;4811016;29;20042;-63
2022/05/29 09:07:09;;;;;;;14.82;10.60;;;;;;;;;;4849408;29;20044;-71
2022/05/29 09:09:41;;;;;;;11.57;9.50;;;;;;;;;;4884843;29;20052;-64
2022/05/29 09:12:08;;;;;;;16.93;10.33;;;;;;;;;;4884826;29;20029;-63
2022/05/29 09:14:47;;;;;;;16.50;10.82;;;;;;;;;;4886935;29;20627;-67
2022/05/29 09:17:43;;;;;;;15.15;9.80;;;;;;;;;;4886509;29;20103;-62
2022/05/29 09:20:13;;;;;;;13.45;10.32;;;;;;;;;;4869270;29;20844;-72
2022/05/29 09:22:47;;;;;;;14.27;10.82;;;;;;;;;;4887443;29;20033;-63
2022/05/29 09:25:33;;;;;;;14.00;10.50;;;;;;;;;;4883416;29;20021;-63
2022/05/29 09:28:05;;;;;;;15.57;10.95;;;;;;;;;;4881912;29;20064;-72
2022/05/29 09:30:31;;;;;;;8.40;7.18;;;;;;;;;;4887993;29;20059;-71
2022/05/29 09:33:02;;;;;;;15.60;9.63;;;;;;;;;;4887893;29;20556;-62
2022/05/29 09:35:31;;;;;;;11.48;9.38;;;;;;;;;;4881871;29;20043;-63
2022/05/29 09:38:13;;;;;;;9.52;8.43;;;;;;;;;;4882336;29;20033;-69
2022/05/29 09:40:58;;;;;;;13.63;8.90;;;;;;;;;;4884875;29;20048;-62
2022/05/29 09:43:26;;;;;;;9.40;8.00;;;;;;;;;;4884007;29;20260;-65
2022/05/29 09:45:52;;;;;;;13.50;9.75;;;;;;;;;;4881967;29;20927;-63
2022/05/29 09:51:20;;;;;;;13.43;7.47;;;;;;;;;;4886026;29;20092;-61
2022/05/29 09:53:52;;;;;;;11.40;7.10;;;;;;;;;;4885934;29;20021;-65
2022/05/29 09:56:31;;;;;;;11.63;7.93;;;;;;;;;;4885123;29;20619;-60
2022/05/29 09:59:04;;;;;;;10.02;7.53;;;;;;;;;;4885594;29;20045;-69
2022/05/29 10:01:46;;;;;;;12.82;6.95;;;;;;;;;;4889258;29;20454;-61
2022/05/29 10:04:32;;;;;;;7.40;5.93;;;;;;;;;;4891962;29;20036;-62
2022/05/29 10:06:59;;;;;;;10.98;6.50;;;;;;;;;;4854212;29;20033;-61
2022/05/29 10:09:26;;;;;;;8.68;6.38;;;;;;;;;;4884339;29;20028;-60
2022/05/29 10:12:00;;;;;;;9.48;6.95;;;;;;;;;;4884867;29;20024;-71
2022/05/29 10:14:39;;;;;;;6.90;5.55;;;;;;;;;;4884352;29;20029;-62
2022/05/29 10:17:16;;;;;;;9.52;5.80;;;;;;;;;;4890569;29;20043;-63
2022/05/29 10:19:44;;;;;;;8.30;5.70;;;;;;;;;;4891553;29;20124;-62
2022/05/29 10:22:29;;;;;;;10.98;6.03;;;;;;;;;;4887802;29;20024;-63
2022/05/29 10:24:55;;;;;;;10.30;6.13;;;;;;;;;;4889073;29;20133;-63
2022/05/29 10:27:37;;;;;;;10.57;6.40;;;;;;;;;;4886859;29;20021;-65
2022/05/29 10:30:05;;;;;;;9.25;6.05;;;;;;;;;;4887398;29;20067;-62
2022/05/29 10:32:33;;;;;;;10.63;6.88;;;;;;;;;;4883735;29;20021;-67
2022/05/29 10:35:10;;;;;;;11.13;7.05;;;;;;;;;;4890807;29;20043;-61
2022/05/29 10:37:38;;;;;;;11.07;6.70;;;;;;;;;;4889531;29;20104;-63
2022/05/29 10:40:15;;;;;;;11.70;6.60;;;;;;;;;;4885314;29;20093;-61
2022/05/29 10:42:44;;;;;;;10.73;6.70;;;;;;;;;;4889399;29;20039;-59
2022/05/29 10:45:17;;;;;;;10.20;6.15;;;;;;;;;;4879302;29;20025;-62
2022/05/29 10:47:49;;;;;;;9.80;6.68;;;;;;;;;;4889464;29;20033;-59
2022/05/29 10:50:15;;;;;;;;;;;;;;;;;;4898787;29;20025;-63
2022/05/29 10:52:50;;;;;;;12.07;6.93;;;;;;;;;;4898091;29;19955;-63
2022/05/29 10:55:35;;;;;;;10.40;6.55;;;;;;;;;;4898626;29;20024;-62
2022/05/29 10:58:20;;;;;;;11.00;6.38;;;;;;;;;;4897524;29;20397;-63
2022/05/29 11:00:46;;;;;;;6.78;5.60;;;;;;;;;;4894566;29;20043;-66
2022/05/29 11:03:18;;;;;;;10.95;6.00;;;;;;;;;;4897822;29;20772;-62
2022/05/29 11:05:47;;;;;;;9.80;5.65;;;;;;;;;;4887924;29;20039;-67
2022/05/29 11:08:31;;;;;;;9.98;6.18;;;;;;;;;;4894912;29;20131;-72
2022/05/29 11:11:03;;;;;;;9.75;5.70;;;;;;;;;;4891555;29;20055;-61
2022/05/29 11:13:29;;;;;;;;;;;;;;;;;;4883024;29;20064;-60
2022/05/29 11:16:07;;;;;;;8.80;5.85;;;;;;;;;;4883623;29;19957;-60
2022/05/29 11:18:33;;;;;;;10.57;5.40;;;;;;;;;;4886385;29;20088;-69
2022/05/29 11:21:18;;;;;;;9.65;5.90;;;;;;;;;;4886058;29;20066;-65
2022/05/29 11:23:56;;;;;;;10.50;6.43;;;;;;;;;;4884029;29;20033;-71
2022/05/29 11:26:39;;;;;;;13.60;7.90;;;;;;;;;;4883449;29;20037;-67
2022/05/29 11:29:05;;;;;;;;;;;;;;;;;;4888151;29;20044;-64
2022/05/29 11:31:35;;;;;;;12.65;6.90;;;;;;;;;;4880057;29;19915;-59
2022/05/29 11:34:07;;;;;;;11.75;7.10;;;;;;;;;;4878270;29;20037;-58
2022/05/29 11:36:44;;;;;;;15.45;8.00;;;;;;;;;;4878346;29;20033;-69
2022/05/29 11:39:21;;;;;;;16.90;7.63;;;;;;;;;;4878601;29;20076;-60
2022/05/29 11:42:07;;;;;;;13.95;7.65;;;;;;;;;;4878378;29;20076;-58
2022/05/29 11:45:02;;;;;;;16.70;9.38;;;;;;;;;;4878119;29;20057;-58
2022/05/29 11:53:28;;;;;;;14.25;8.77;;;;;;;;;;4802935;29;20079;-59
2022/05/29 11:55:56;;;;;;;15.18;8.68;;;;;;;;;;4811827;29;20170;-59
2022/05/29 11:58:27;;;;;;;15.32;7.80;;;;;;;;;;4820625;29;20058;-67
2022/05/29 12:00:53;;;;;;;11.68;7.15;;;;;;;;;;4820629;29;20043;-59
2022/05/29 12:03:22;;;;;;;11.75;7.50;;;;;;;;;;4810389;29;20035;-59
2022/05/29 12:05:48;;;;;;;9.43;7.40;;;;;;;;;;4801933;29;20039;-58
2022/05/29 12:08:32;;;;;;;12.05;6.85;;;;;;;;;;4801985;29;20074;-59
2022/05/29 12:11:03;;;;;;;10.85;7.22;;;;;;;;;;4817688;29;20042;-59
2022/05/29 12:13:32;;;;;;;11.98;6.90;;;;;;;;;;4807710;29;20146;-60
2022/05/29 12:16:02;;;;;;;14.30;7.38;;;;;;;;;;4809395;29;20046;-68
2022/05/29 12:18:34;;;;;;;11.57;7.22;;;;;;;;;;4810535;29;20039;-59
2022/05/29 12:21:01;;;;;;;12.70;7.10;;;;;;;;;;4810024;29;20832;-63
2022/05/29 12:23:41;;;;;;;11.20;7.28;;;;;;;;;;4833092;29;20037;-66
2022/05/29 12:26:08;;;;;;;9.98;6.45;;;;;;;;;;4884602;29;20057;-64
2022/05/29 12:28:42;;;;;;;13.75;7.50;;;;;;;;;;4883090;29;20029;-63
2022/05/29 12:31:11;;;;;;;12.82;8.23;;;;;;;;;;4877285;29;20040;-60
2022/05/29 12:33:37;;;;;;;10.85;7.95;;;;;;;;;;4877323;29;20479;-63
2022/05/29 12:36:12;;;;;;;11.27;7.07;;;;;;;;;;4877772;29;20056;-62
2022/05/29 12:38:38;;;;;;;11.55;8.02;;;;;;;;;;4876896;29;20044;-61
2022/05/29 12:41:11;;;;;;;11.63;8.38;;;;;;;;;;4877278;29;20037;-60
2022/05/29 12:43:40;;;;;;;12.57;8.48;;;;;;;;;;4876997;29;20064;-64
2022/05/29 12:46:30;;;;;;;11.40;8.02;;;;;;;;;;4877192;29;20071;-60
2022/05/29 12:49:14;;;;;;;10.63;7.45;;;;;;;;;;4877392;29;20043;-59
2022/05/29 12:51:43;;;;;;;17.20;9.10;;;;;;;;;;4877280;29;20032;-63
2022/05/29 12:54:30;;;;;;;13.32;8.55;;;;;;;;;;4877060;29;20093;-59
2022/05/29 12:57:15;;;;;;;16.23;9.35;;;;;;;;;;4877567;29;20142;-69
2022/05/29 12:59:41;;;;;;;12.95;9.10;;;;;;;;;;4876647;29;20101;-66
2022/05/29 13:02:07;;;;;;;14.75;10.25;;;;;;;;;;4877266;29;20093;-62
2022/05/29 13:04:53;;;;;;;13.75;8.98;;;;;;;;;;4876675;29;20466;-59
2022/05/29 13:07:20;;;;;;;16.65;9.02;;;;;;;;;;4876889;29;20453;-63
2022/05/29 13:09:46;;;;;;;14.00;8.98;;;;;;;;;;4876871;29;20025;-59
2022/05/29 13:12:15;;;;;;;14.98;9.27;;;;;;;;;;4876722;29;20035;-60
2022/05/29 13:14:46;;;;;;;14.30;9.98;;;;;;;;;;4876946;29;20434;-60
2022/05/29 13:17:13;;;;;;;13.43;9.23;;;;;;;;;;4894007;29;20063;-60
2022/05/29 13:19:59;;;;;;;15.52;9.70;;;;;;;;;;4895402;29;20051;-61
2022/05/29 13:22:55;;;;;;;14.43;8.80;;;;;;;;;;4895065;29;20040;-69
2022/05/29 13:25:25;;;;;;;13.25;7.93;;;;;;;;;;4800969;29;20086;-61
2022/05/29 13:27:51;;;;;;;11.13;7.75;;;;;;;;;;4807813;29;20240;-71
2022/05/29 13:30:50;;;;;;;10.45;7.75;;;;;;;;;;4818428;29;20054;-60
2022/05/29 13:33:25;;;;;;;11.20;7.72;;;;;;;;;;4764922;30;20091;-61
2022/05/29 13:35:52;;;;;;;9.63;6.88;;;;;;;;;;4765358;30;20221;-60
2022/05/29 13:38:36;;;;;;;12.60;7.25;;;;;;;;;;4768422;30;20513;-60
2022/05/29 13:41:04;;;;;;;10.25;6.90;;;;;;;;;;4768814;30;20126;-61
2022/05/29 13:43:30;;;;;;;11.02;7.75;;;;;;;;;;4769457;30;20056;-67
2022/05/29 13:45:58;;;;;;;8.95;7.18;;;;;;;;;;4768916;30;20068;-61
2022/05/29 13:48:30;;;;;;;13.73;7.60;;;;;;;;;;4768522;30;20416;-71
2022/05/29 13:50:56;;;;;;;13.85;8.15;;;;;;;;;;4768757;30;20124;-61
2022/05/29 13:53:29;;;;;;;14.07;8.32;;;;;;;;;;4768921;30;20037;-70
2022/05/29 13:55:55;;;;;;;;;;;;;;;;;;4769160;30;20044;-60
2022/05/29 14:03:59;;;;;;;10.30;7.30;;;;;;;;;;4830320;29;20399;-69
2022/05/29 14:06:29;;;;;;;19.23;11.00;;;;;;;;;;4826033;29;20205;-59
2022/05/29 14:09:23;;;;;;;14.23;9.13;;;;;;;;;;4857115;29;20041;-59
2022/05/29 14:11:55;;;;;;;10.45;7.18;;;;;;;;;;4865520;29;20049;-60
2022/05/29 14:14:30;;;;;;;12.50;7.13;;;;;;;;;;4862697;29;20128;-63
2022/05/29 14:17:08;;;;;;;12.20;7.57;;;;;;;;;;4881986;29;20614;-59
2022/05/29 14:19:52;;;;;;;10.10;7.20;;;;;;;;;;4894600;29;20599;-60
2022/05/29 14:25:08;;;;;;;13.35;7.20;;;;;;;;;;4899124;29;20485;-64
2022/05/29 14:28:04;;;;;;;9.15;6.63;;;;;;;;;;4898602;29;20039;-60
2022/05/29 14:30:30;;;;;;;11.27;7.38;;;;;;;;;;4898149;29;20436;-62
2022/05/29 14:32:56;;;;;;;13.05;8.10;;;;;;;;;;4898700;29;20033;-60
2022/05/29 14:35:40;;;;;;;12.13;7.68;;;;;;;;;;4898407;29;20112;-59
2022/05/29 14:38:06;;;;;;;11.35;8.27;;;;;;;;;;4898439;29;20131;-66
2022/05/29 14:40:37;;;;;;;13.02;7.78;;;;;;;;;;4898610;29;20029;-60
2022/05/29 14:43:06;;;;;;;13.80;9.18;;;;;;;;;;4898463;29;20068;-65
2022/05/29 14:45:32;;;;;;;14.85;8.27;;;;;;;;;;4898014;29;20071;-62
2022/05/29 14:48:07;;;;;;;15.63;8.45;;;;;;;;;;4897681;29;20056;-64
2022/05/29 14:50:46;;;;;;;13.13;7.65;;;;;;;;;;4898023;29;20036;-63
2022/05/29 14:53:20;;;;;;;12.05;8.30;;;;;;;;;;4897730;29;20039;-63
2022/05/29 14:55:53;;;;;;;12.73;8.50;;;;;;;;;;4897597;29;20055;-62
2022/05/29 14:58:27;;;;;;;11.82;8.07;;;;;;;;;;4885245;29;20097;-64
2022/05/29 15:00:54;;;;;;;13.82;8.05;;;;;;;;;;4878610;29;20504;-63
2022/05/29 15:03:23;;;;;;;11.13;8.07;;;;;;;;;;4887322;29;20494;-62
2022/05/29 15:05:57;;;;;;;12.32;8.30;;;;;;;;;;4892565;29;20143;-63
2022/05/29 15:11:16;;;;;;;10.77;8.50;;;;;;;;;;4888775;29;20056;-63
2022/05/29 15:13:57;;;;;;;;;;;;;;;;;;4889602;29;20029;-63
2022/05/29 15:16:25;;;;;;;16.23;10.95;;;;;;;;;;4885595;29;19911;-62
2022/05/29 15:18:51;;;;;;;15.90;10.40;;;;;;;;;;4887717;29;20164;-63
2022/05/29 15:24:18;;;;;;;12.60;8.45;;;;;;;;;;4877530;29;20044;-62
2022/05/29 15:26:48;;;;;;;13.70;9.30;;;;;;;;;;4881645;29;20031;-63
2022/05/29 15:29:19;;;;;;;15.75;9.20;;;;;;;;;;4878174;29;20057;-61
2022/05/29 15:31:51;;;;;;;13.13;9.00;;;;;;;;;;4877306;29;20037;-60
2022/05/29 15:34:23;;;;;;;13.18;8.77;;;;;;;;;;4877430;29;20041;-61
2022/05/29 15:36:49;;;;;;;;;;;;;;;;;;4878000;29;20029;-62
2022/05/29 15:39:25;;;;;;;12.20;8.40;;;;;;;;;;4877791;29;19927;-60
2022/05/29 15:42:06;;;;;;;13.32;8.07;;;;;;;;;;4877649;29;20410;-60
2022/05/29 15:44:58;;;;;;;12.07;7.95;;;;;;;;;;4877641;29;20497;-61
2022/05/29 15:47:30;;;;;;;11.50;7.90;;;;;;;;;;4842636;29;20316;-61
2022/05/29 15:49:59;;;;;;;11.10;7.85;;;;;;;;;;4877617;29;20506;-60
2022/05/29 15:52:58;;;;;;;13.27;9.50;;;;;;;;;;4877107;29;20401;-61
2022/05/29 15:55:26;;;;;;;14.18;9.80;;;;;;;;;;4783320;30;20066;-60
2022/05/29 15:57:55;;;;;;;14.90;9.90;;;;;;;;;;4798133;29;20054;-60
2022/05/29 16:00:25;;;;;;;12.90;9.05;;;;;;;;;;4800818;29;20050;-61
2022/05/29 16:02:59;;;;;;;18.70;9.68;;;;;;;;;;4800964;29;20042;-61
2022/05/29 16:05:25;;;;;;;14.18;8.65;;;;;;;;;;4801044;29;20069;-60
2022/05/29 16:07:51;;;;;;;13.60;8.90;;;;;;;;;;4800989;29;20031;-60
2022/05/29 16:10:17;;;;;;;17.02;9.48;;;;;;;;;;4800476;29;20038;-60
2022/05/29 16:12:51;;;;;;;14.82;9.50;;;;;;;;;;4800935;29;20119;-61
2022/05/29 16:15:35;;;;;;;15.63;10.02;;;;;;;;;;4801409;29;20062;-61
2022/05/29 16:18:03;;;;;;;15.45;9.93;;;;;;;;;;4800817;29;20112;-62
2022/05/29 16:20:44;;;;;;;14.18;9.55;;;;;;;;;;4801236;29;20500;-62
2022/05/29 16:23:11;;;;;;;12.80;8.68;;;;;;;;;;4801070;29;20486;-61
2022/05/29 16:25:43;;;;;;;14.77;9.40;;;;;;;;;;4800998;29;20124;-62
2022/05/29 16:28:28;;;;;;;14.95;7.85;;;;;;;;;;4800512;29;20046;-62
2022/05/29 16:30:59;;;;;;;15.88;9.35;;;;;;;;;;4835635;29;20084;-62
2022/05/29 16:33:35;;;;;;;19.42;11.27;;;;;;;;;;4876392;29;20029;-62
2022/05/29 16:36:04;;;;;;;12.05;6.30;;;;;;;;;;4876262;29;20116;-61
2022/05/29 16:49:50;;;;;;;13.35;9.20;;;;;;;;;;4887511;29;20052;-61
2022/05/29 16:52:24;;;;;;;13.18;9.10;;;;;;;;;;4878763;29;20038;-60
2022/05/29 16:55:05;;;;;;;12.68;9.35;;;;;;;;;;4883303;29;20044;-61
2022/05/29 16:57:53;;;;;;;11.82;8.38;;;;;;;;;;4875381;29;20509;-61
2022/05/29 17:00:23;;;;;;;12.23;8.05;;;;;;;;;;4875142;29;20057;-61
2022/05/29 17:03:07;;;;;;;14.90;9.10;;;;;;;;;;4876399;29;20381;-58
2022/05/29 17:05:37;;;;;;;15.65;8.73;;;;;;;;;;4876881;29;20029;-61
2022/05/29 17:08:11;;;;;;;16.60;9.82;;;;;;;;;;4876984;29;20496;-59
2022/05/29 17:10:42;;;;;;;11.77;8.32;;;;;;;;;;4876718;29;20563;-60
2022/05/29 17:13:08;;;;;;;14.60;8.88;;;;;;;;;;4876233;29;20075;-59
2022/05/29 17:15:35;;;;;;;15.30;9.32;;;;;;;;;;4876858;29;20029;-60
2022/05/29 17:18:02;;;;;;;15.85;9.15;;;;;;;;;;4876835;29;20393;-60
2022/05/29 17:20:29;;;;;;;16.65;10.13;;;;;;;;;;4877185;29;20037;-61
2022/05/29 17:22:55;;;;;;;18.13;10.13;;;;;;;;;;4876425;29;20057;-60
2022/05/29 17:25:27;;;;;;;18.85;9.48;;;;;;;;;;4876913;29;20477;-60
2022/05/29 17:27:59;;;;;;;14.07;9.77;;;;;;;;;;4876548;29;20029;-60
2022/05/29 17:30:27;;;;;;;12.55;9.48;;;;;;;;;;4876455;29;20060;-60
2022/05/29 17:33:06;;;;;;;13.77;9.07;;;;;;;;;;4876118;29;20381;-59
2022/05/29 17:35:35;;;;;;;19.23;9.20;;;;;;;;;;4876295;29;20197;-59
2022/05/29 17:38:10;;;;;;;17.42;9.77;;;;;;;;;;4876901;29;20120;-60
2022/05/29 17:40:39;;;;;;;15.68;9.00;;;;;;;;;;4872899;29;20441;-61
2022/05/29 17:43:05;;;;;;;19.13;9.23;;;;;;;;;;4877276;29;20160;-60
2022/05/29 17:45:31;;;;;;;15.65;11.10;;;;;;;;;;4894816;29;20036;-60
2022/05/29 17:48:03;;;;;;;14.93;10.25;;;;;;;;;;4894424;29;20024;-60
2022/05/29 17:50:39;;;;;;;14.98;10.10;;;;;;;;;;4893439;29;20040;-62
2022/05/29 17:53:19;;;;;;;14.73;9.48;;;;;;;;;;4893097;29;20036;-60
2022/05/29 17:55:45;;;;;;;13.20;8.95;;;;;;;;;;4892183;29;20037;-60
2022/05/29 17:58:13;;;;;;;16.02;9.65;;;;;;;;;;4892485;29;20513;-62
2022/05/29 18:00:40;;;;;;;15.27;10.02;;;;;;;;;;4892950;29;20052;-61
2022/05/29 18:03:08;;;;;;;14.60;9.73;;;;;;;;;;4888547;29;20107;-61
2022/05/29 18:05:35;;;;;;;18.35;10.30;;;;;;;;;;4892529;29;20142;-61
2022/05/29 18:08:01;;;;;;;18.13;10.30;;;;;;;;;;4891753;29;20024;-58
2022/05/29 18:22:19;;;;;;;16.35;11.65;;;;;;;;;;4894898;29;20083;-60
2022/05/29 18:24:48;;;;;;;15.82;11.45;;;;;;;;;;4897724;29;20036;-59
2022/05/29 18:27:36;;;;;;;14.75;12.23;;;;;;;;;;4898325;29;20059;-61
2022/05/29 18:30:37;;;;;;;19.80;13.40;;;;;;;;;;4897359;29;20120;-59
2022/05/29 18:33:03;;;;;;;21.58;14.30;;;;;;;;;;4897862;29;20056;-59
2022/05/29 18:35:31;;;;;;;21.00;13.90;;;;;;;;;;4897616;29;20512;-60
2022/05/29 18:38:10;;;;;;;21.55;14.00;;;;;;;;;;4897573;29;20064;-60
2022/05/29 18:40:36;;;;;;;19.13;13.02;;;;;;;;;;4898034;29;20033;-61
2022/05/29 18:43:03;;;;;;;15.93;12.95;;;;;;;;;;4897695;29;20044;-59
2022/05/29 18:45:29;;;;;;;18.60;13.18;;;;;;;;;;4898303;29;20036;-62
2022/05/29 18:47:55;;;;;;;20.35;13.45;;;;;;;;;;4897833;29;20539;-60
2022/05/29 18:50:21;;;;;;;18.55;13.30;;;;;;;;;;4898143;29;20481;-61
2022/05/29 18:52:47;;;;;;;21.70;13.85;;;;;;;;;;4897465;29;20548;-62
2022/05/29 18:55:14;;;;;;;17.85;11.40;;;;;;;;;;4897604;29;20035;-64
2022/05/29 18:57:40;;;;;;;15.35;10.80;;;;;;;;;;4897987;29;20044;-61
2022/05/29 19:00:10;;;;;;;15.30;11.32;;;;;;;;;;4897975;29;20489;-65
2022/05/29 19:02:36;;;;;;;20.27;12.68;;;;;;;;;;4897757;29;20477;-61
2022/05/29 19:05:03;;;;;;;16.73;12.13;;;;;;;;;;4897541;29;20532;-61
2022/05/29 19:07:29;;;;;;;16.95;11.07;;;;;;;;;;4897621;29;20508;-60
2022/05/29 19:09:56;;;;;;;16.77;10.45;;;;;;;;;;4897552;29;20032;-61
2022/05/29 19:12:23;;;;;;;16.33;11.85;;;;;;;;;;4897370;29;20025;-61
2022/05/29 19:14:50;;;;;;;18.60;12.23;;;;;;;;;;4897395;29;20040;-63
2022/05/29 19:20:01;;;;;;;20.10;13.25;;;;;;;;;;4897257;29;20144;-61
2022/05/29 19:22:27;;;;;;;19.02;14.30;;;;;;;;;;4897290;29;20024;-61
2022/05/29 19:24:56;;;;;;;19.48;14.38;;;;;;;;;;4897178;29;20053;-60
2022/05/29 19:27:25;;;;;;;20.85;14.75;;;;;;;;;;4897164;29;20433;-60
2022/05/29 19:29:53;;;;;;;16.63;12.32;;;;;;;;;;4892379;29;20792;-61
2022/05/29 19:32:19;;;;;;;17.77;13.45;;;;;;;;;;4891521;29;20053;-60
2022/05/29 19:34:45;;;;;;;22.02;13.27;;;;;;;;;;4896191;29;20035;-62
2022/05/29 19:37:12;;;;;;;18.23;13.85;;;;;;;;;;4897236;29;20084;-62
2022/05/29 19:39:38;;;;;;;20.83;13.38;;;;;;;;;;4896942;29;20075;-60
2022/05/29 19:42:04;;;;;;;20.35;13.57;;;;;;;;;;4892028;29;20036;-61
2022/05/29 19:44:36;;;;;;;19.65;13.30;;;;;;;;;;4889383;29;20485;-62
2022/05/29 19:47:02;;;;;;;20.25;14.60;;;;;;;;;;4890132;29;20043;-61
2022/05/29 19:49:28;;;;;;;21.83;14.05;;;;;;;;;;4886006;29;20036;-62
2022/05/29 19:51:54;;;;;;;19.52;12.93;;;;;;;;;;4888966;29;20668;-61
2022/05/29 19:54:20;;;;;;;19.20;13.95;;;;;;;;;;4894585;29;20051;-61
2022/05/29 19:56:46;;;;;;;19.15;14.48;;;;;;;;;;4892335;29;20025;-60
2022/05/29 19:59:14;;;;;;;18.35;13.82;;;;;;;;;;4894078;29;20056;-61
2022/05/29 20:01:41;;;;;;;20.02;13.57;;;;;;;;;;4896875;29;20088;-63
2022/05/29 20:04:08;;;;;;;20.95;14.15;;;;;;;;;;4890311;29;20616;-60
2022/05/29 20:06:36;;;;;;;21.70;14.52;;;;;;;;;;4887573;29;20093;-60
2022/05/29 20:09:03;;;;;;;27.83;14.77;;;;;;;;;;4886489;29;20025;-63
2022/05/29 20:11:32;;;;;;;26.30;15.32;;;;;;;;;;4886331;29;20338;-62
2022/05/29 20:13:59;;;;;;;20.67;14.38;;;;;;;;;;4887595;29;20027;-61
2022/05/29 20:16:27;;;;;;;21.42;13.68;;;;;;;;;;4886640;29;20021;-61
2022/05/29 20:18:53;;;;;;;27.30;14.93;;;;;;;;;;4883872;29;20037;-61
2022/05/29 20:21:21;;;;;;;21.90;14.57;;;;;;;;;;4886622;29;20032;-62
2022/05/29 20:23:48;;;;;;;48.58;33.25;;;;;;;;;;4887279;29;20089;-61
2022/05/29 20:26:14;;;;;;;22.63;16.08;;;;;;;;;;4883577;29;20115;-60
2022/05/29 20:28:40;;;;;;;23.92;15.68;;;;;;;;;;4886468;29;20041;-61
2022/05/29 20:31:06;;;;;;;25.60;15.68;;;;;;;;;;4885069;29;20029;-61
2022/05/29 20:33:32;;;;;;;24.75;16.17;;;;;;;;;;4887291;29;20055;-64
2022/05/29 20:36:06;;;;;;;23.75;15.35;;;;;;;;;;4885583;29;20021;-61
2022/05/29 20:38:33;;;;;;;25.90;15.73;;;;;;;;;;4879636;29;20044;-60
2022/05/29 20:41:04;;;;;;;28.40;16.98;;;;;;;;;;4886634;29;20504;-61
2022/05/29 20:43:30;;;;;;;25.88;17.50;;;;;;;;;;4886859;29;20029;-60
2022/05/29 20:48:42;;;;;;;22.58;16.48;;;;;;;;;;4878050;29;20048;-60
2022/05/29 20:51:08;;;;;;;25.88;14.90;;;;;;;;;;4885968;29;20025;-60
2022/05/29 20:53:34;;;;;;;27.65;15.85;;;;;;;;;;4884414;29;20057;-60
2022/05/29 20:56:03;;;;;;;25.08;15.38;;;;;;;;;;4885669;29;20028;-60
2022/05/29 20:58:31;;;;;;;26.35;15.05;;;;;;;;;;4886155;29;20033;-61
2022/05/29 21:01:06;;;;;;;22.45;15.88;;;;;;;;;;4884664;29;20029;-61
2022/05/29 21:03:32;;;;;;;27.92;15.38;;;;;;;;;;4884391;29;20029;-62
2022/05/29 21:05:59;;;;;;;20.55;14.38;;;;;;;;;;4885869;29;20028;-61
2022/05/29 21:08:25;;;;;;;25.00;15.85;;;;;;;;;;4894451;29;20031;-61
2022/05/29 21:10:51;;;;;;;23.50;15.25;;;;;;;;;;4889967;29;20064;-62
2022/05/29 21:13:17;;;;;;;30.40;15.32;;;;;;;;;;4887129;29;21102;-64
2022/05/29 21:15:43;;;;;;;30.23;15.48;;;;;;;;;;4885712;29;20412;-64
2022/05/29 21:18:09;;;;;;;23.17;14.93;;;;;;;;;;4886549;29;20048;-61
2022/05/29 21:20:37;;;;;;;21.60;14.77;;;;;;;;;;4886302;29;20141;-61
2022/05/29 21:23:03;;;;;;;20.67;13.55;;;;;;;;;;4881040;29;20031;-61